sensor_id;sensor_type;location;lat;lon;timestamp;P1;durP1;ratioP1;P2;durP2;ratioP2
18875;SDS011;9570;50.854;13.778;2023-04-12T00:02:12;3.77;;;1.77;;
18875;SDS011;9570;50.854;13.778;2023-04-12T00:04:38;4.07;;;1.83;;
18875;SDS011;9570;50.854;13.778;2023-04-12T00:07:04;2.40;;;1.77;;
18875;SDS011;9570;50.854;13.778;2023-04-12T00:09:30;2.50;;;1.90;;
18875;SDS011;9570;50.854;13.778;2023-04-12T00:11:57;3.07;;;2.10;;
18875;SDS011;9570;50.854;13.778;2023-04-12T00:14:23;5.32;;;1.90;;
18875;SDS011;9570;50.854;13.778;2023-04-12T00:16:49;2.92;;;1.98;;
18875;SDS011;9570;50.854;13.778;2023-04-12T00:19:14;5.23;;;1.90;;
18875;SDS011;9570;50.854;13.778;2023-04-12T00:21:41;2.85;;;1.60;;
18875;SDS011;9570;50.854;13.778;2023-04-12T00:24:09;2.40;;;2.08;;
18875;SDS011;9570;50.854;13.778;2023-04-12T00:26:35;2.67;;;1.77;;
18875;SDS011;9570;50.854;13.778;2023-04-12T00:29:00;3.20;;;2.10;;
18875;SDS011;9570;50.854;13.778;2023-04-12T00:31:26;2.43;;;1.83;;
18875;SDS011;9570;50.854;13.778;2023-04-12T00:33:52;4.47;;;1.93;;
18875;SDS011;9570;50.854;13.778;2023-04-12T00:36:17;3.10;;;2.17;;
18875;SDS011;9570;50.854;13.778;2023-04-12T00:38:43;2.10;;;1.90;;
18875;SDS011;9570;50.854;13.778;2023-04-12T00:41:12;3.85;;;2.20;;
18875;SDS011;9570;50.854;13.778;2023-04-12T00:43:39;2.33;;;1.77;;
18875;SDS011;9570;50.854;13.778;2023-04-12T00:46:05;3.15;;;1.92;;
18875;SDS011;9570;50.854;13.778;2023-04-12T00:48:31;3.13;;;1.90;;
18875;SDS011;9570;50.854;13.778;2023-04-12T00:50:57;3.17;;;1.57;;
18875;SDS011;9570;50.854;13.778;2023-04-12T00:53:23;3.05;;;2.10;;
18875;SDS011;9570;50.854;13.778;2023-04-12T00:55:49;2.73;;;1.90;;
18875;SDS011;9570;50.854;13.778;2023-04-12T00:58:16;2.58;;;1.90;;
18875;SDS011;9570;50.854;13.778;2023-04-12T01:00:42;2.63;;;1.90;;
18875;SDS011;9570;50.854;13.778;2023-04-12T01:03:14;3.25;;;1.90;;
18875;SDS011;9570;50.854;13.778;2023-04-12T01:05:48;3.13;;;1.90;;
18875;SDS011;9570;50.854;13.778;2023-04-12T01:08:23;2.30;;;1.80;;
18875;SDS011;9570;50.854;13.778;2023-04-12T01:11:16;1.90;;;1.70;;
18875;SDS011;9570;50.854;13.778;2023-04-12T01:13:53;5.70;;;1.90;;
18875;SDS011;9570;50.854;13.778;2023-04-12T01:16:27;1.65;;;1.55;;
18875;SDS011;9570;50.854;13.778;2023-04-12T01:19:01;3.22;;;2.00;;
18875;SDS011;9570;50.854;13.778;2023-04-12T01:24:20;2.10;;;1.63;;
18875;SDS011;9570;50.854;13.778;2023-04-12T01:26:56;1.85;;;1.70;;
18875;SDS011;9570;50.854;13.778;2023-04-12T01:29:24;3.03;;;1.90;;
18875;SDS011;9570;50.854;13.778;2023-04-12T01:31:53;4.28;;;1.83;;
18875;SDS011;9570;50.854;13.778;2023-04-12T01:34:24;3.38;;;1.90;;
18875;SDS011;9570;50.854;13.778;2023-04-12T01:36:52;1.90;;;1.58;;
18875;SDS011;9570;50.854;13.778;2023-04-12T01:39:19;3.33;;;1.90;;
18875;SDS011;9570;50.854;13.778;2023-04-12T01:41:45;5.50;;;1.90;;
18875;SDS011;9570;50.854;13.778;2023-04-12T01:44:13;4.25;;;1.80;;
18875;SDS011;9570;50.854;13.778;2023-04-12T01:46:40;4.38;;;1.58;;
18875;SDS011;9570;50.854;13.778;2023-04-12T01:49:08;2.63;;;1.90;;
18875;SDS011;9570;50.854;13.778;2023-04-12T01:54:26;3.80;;;1.80;;
18875;SDS011;9570;50.854;13.778;2023-04-12T01:56:55;2.03;;;1.65;;
18875;SDS011;9570;50.854;13.778;2023-04-12T01:59:22;3.50;;;1.90;;
18875;SDS011;9570;50.854;13.778;2023-04-12T02:01:52;1.77;;;1.65;;
18875;SDS011;9570;50.854;13.778;2023-04-12T02:04:17;2.90;;;1.70;;
18875;SDS011;9570;50.854;13.778;2023-04-12T02:06:45;2.95;;;1.88;;
18875;SDS011;9570;50.854;13.778;2023-04-12T02:09:11;2.42;;;1.63;;
18875;SDS011;9570;50.854;13.778;2023-04-12T02:11:36;2.57;;;1.63;;
18875;SDS011;9570;50.854;13.778;2023-04-12T02:14:02;3.57;;;1.90;;
18875;SDS011;9570;50.854;13.778;2023-04-12T02:16:27;3.27;;;1.53;;
18875;SDS011;9570;50.854;13.778;2023-04-12T02:18:53;3.93;;;1.70;;
18875;SDS011;9570;50.854;13.778;2023-04-12T02:21:20;6.60;;;1.70;;
18875;SDS011;9570;50.854;13.778;2023-04-12T02:23:45;2.03;;;1.70;;
18875;SDS011;9570;50.854;13.778;2023-04-12T02:26:11;3.63;;;1.70;;
18875;SDS011;9570;50.854;13.778;2023-04-12T02:28:37;1.77;;;1.30;;
18875;SDS011;9570;50.854;13.778;2023-04-12T02:31:03;2.60;;;1.42;;
18875;SDS011;9570;50.854;13.778;2023-04-12T02:33:32;5.32;;;1.90;;
18875;SDS011;9570;50.854;13.778;2023-04-12T02:35:58;2.03;;;1.58;;
18875;SDS011;9570;50.854;13.778;2023-04-12T02:38:26;5.05;;;1.45;;
18875;SDS011;9570;50.854;13.778;2023-04-12T02:40:52;1.80;;;1.40;;
18875;SDS011;9570;50.854;13.778;2023-04-12T02:43:18;3.37;;;1.67;;
18875;SDS011;9570;50.854;13.778;2023-04-12T02:45:43;2.40;;;1.60;;
18875;SDS011;9570;50.854;13.778;2023-04-12T02:48:10;1.98;;;1.35;;
18875;SDS011;9570;50.854;13.778;2023-04-12T02:50:36;2.27;;;1.50;;
18875;SDS011;9570;50.854;13.778;2023-04-12T02:53:02;3.83;;;1.53;;
18875;SDS011;9570;50.854;13.778;2023-04-12T02:55:27;2.13;;;1.60;;
18875;SDS011;9570;50.854;13.778;2023-04-12T02:57:54;5.13;;;1.88;;
18875;SDS011;9570;50.854;13.778;2023-04-12T03:00:20;2.90;;;1.40;;
18875;SDS011;9570;50.854;13.778;2023-04-12T03:02:46;1.97;;;1.57;;
18875;SDS011;9570;50.854;13.778;2023-04-12T03:05:15;2.03;;;1.35;;
18875;SDS011;9570;50.854;13.778;2023-04-12T03:07:41;1.50;;;1.40;;
18875;SDS011;9570;50.854;13.778;2023-04-12T03:10:07;3.23;;;1.50;;
18875;SDS011;9570;50.854;13.778;2023-04-12T03:12:35;2.13;;;1.48;;
18875;SDS011;9570;50.854;13.778;2023-04-12T03:15:01;2.83;;;1.87;;
18875;SDS011;9570;50.854;13.778;2023-04-12T03:17:27;3.00;;;1.40;;
18875;SDS011;9570;50.854;13.778;2023-04-12T03:19:53;2.30;;;1.27;;
18875;SDS011;9570;50.854;13.778;2023-04-12T03:22:19;3.33;;;1.48;;
18875;SDS011;9570;50.854;13.778;2023-04-12T03:24:45;2.67;;;1.40;;
18875;SDS011;9570;50.854;13.778;2023-04-12T03:27:10;2.30;;;1.47;;
18875;SDS011;9570;50.854;13.778;2023-04-12T03:29:36;3.60;;;1.50;;
18875;SDS011;9570;50.854;13.778;2023-04-12T03:32:01;3.00;;;1.40;;
18875;SDS011;9570;50.854;13.778;2023-04-12T03:34:27;7.93;;;1.60;;
18875;SDS011;9570;50.854;13.778;2023-04-12T03:36:59;2.33;;;1.40;;
18875;SDS011;9570;50.854;13.778;2023-04-12T03:39:25;4.72;;;1.65;;
18875;SDS011;9570;50.854;13.778;2023-04-12T03:41:51;1.90;;;1.30;;
18875;SDS011;9570;50.854;13.778;2023-04-12T03:44:17;2.28;;;1.30;;
18875;SDS011;9570;50.854;13.778;2023-04-12T03:46:43;4.90;;;1.50;;
18875;SDS011;9570;50.854;13.778;2023-04-12T03:49:09;1.67;;;1.40;;
18875;SDS011;9570;50.854;13.778;2023-04-12T03:51:35;1.92;;;1.40;;
18875;SDS011;9570;50.854;13.778;2023-04-12T03:54:06;2.42;;;1.73;;
18875;SDS011;9570;50.854;13.778;2023-04-12T03:56:35;5.82;;;1.40;;
18875;SDS011;9570;50.854;13.778;2023-04-12T03:59:02;2.78;;;1.48;;
18875;SDS011;9570;50.854;13.778;2023-04-12T04:01:28;2.87;;;1.20;;
18875;SDS011;9570;50.854;13.778;2023-04-12T04:03:53;2.40;;;1.43;;
18875;SDS011;9570;50.854;13.778;2023-04-12T04:06:19;2.93;;;1.50;;
18875;SDS011;9570;50.854;13.778;2023-04-12T04:08:44;4.07;;;1.50;;
18875;SDS011;9570;50.854;13.778;2023-04-12T04:11:10;1.70;;;1.23;;
18875;SDS011;9570;50.854;13.778;2023-04-12T04:13:36;1.38;;;1.27;;
18875;SDS011;9570;50.854;13.778;2023-04-12T04:16:02;7.33;;;1.90;;
18875;SDS011;9570;50.854;13.778;2023-04-12T04:18:30;2.38;;;1.55;;
18875;SDS011;9570;50.854;13.778;2023-04-12T04:20:56;3.83;;;1.50;;
18875;SDS011;9570;50.854;13.778;2023-04-12T04:23:22;2.47;;;1.40;;
18875;SDS011;9570;50.854;13.778;2023-04-12T04:25:48;5.03;;;1.40;;
18875;SDS011;9570;50.854;13.778;2023-04-12T04:28:15;2.97;;;1.50;;
18875;SDS011;9570;50.854;13.778;2023-04-12T04:30:41;3.47;;;1.40;;
18875;SDS011;9570;50.854;13.778;2023-04-12T04:33:10;4.47;;;1.70;;
18875;SDS011;9570;50.854;13.778;2023-04-12T04:35:37;1.98;;;1.33;;
18875;SDS011;9570;50.854;13.778;2023-04-12T04:38:04;5.32;;;1.92;;
18875;SDS011;9570;50.854;13.778;2023-04-12T04:40:30;2.40;;;1.13;;
18875;SDS011;9570;50.854;13.778;2023-04-12T04:42:56;2.15;;;1.27;;
18875;SDS011;9570;50.854;13.778;2023-04-12T04:45:23;3.25;;;1.35;;
18875;SDS011;9570;50.854;13.778;2023-04-12T04:47:54;3.35;;;1.45;;
18875;SDS011;9570;50.854;13.778;2023-04-12T04:50:20;3.80;;;1.58;;
18875;SDS011;9570;50.854;13.778;2023-04-12T04:52:47;3.25;;;1.50;;
18875;SDS011;9570;50.854;13.778;2023-04-12T04:55:13;2.58;;;1.50;;
18875;SDS011;9570;50.854;13.778;2023-04-12T04:57:39;4.10;;;1.70;;
18875;SDS011;9570;50.854;13.778;2023-04-12T05:00:05;2.40;;;1.30;;
18875;SDS011;9570;50.854;13.778;2023-04-12T05:02:35;4.35;;;1.40;;
18875;SDS011;9570;50.854;13.778;2023-04-12T05:05:01;2.55;;;1.33;;
18875;SDS011;9570;50.854;13.778;2023-04-12T05:07:28;3.83;;;1.52;;
18875;SDS011;9570;50.854;13.778;2023-04-12T05:09:53;4.53;;;1.50;;
18875;SDS011;9570;50.854;13.778;2023-04-12T05:12:19;3.27;;;1.67;;
18875;SDS011;9570;50.854;13.778;2023-04-12T05:14:45;2.47;;;1.60;;
18875;SDS011;9570;50.854;13.778;2023-04-12T05:17:10;2.40;;;1.60;;
18875;SDS011;9570;50.854;13.778;2023-04-12T05:19:36;2.90;;;1.63;;
18875;SDS011;9570;50.854;13.778;2023-04-12T05:22:01;3.20;;;1.70;;
18875;SDS011;9570;50.854;13.778;2023-04-12T05:24:27;4.50;;;1.67;;
18875;SDS011;9570;50.854;13.778;2023-04-12T05:26:52;1.97;;;1.60;;
18875;SDS011;9570;50.854;13.778;2023-04-12T05:29:18;4.13;;;1.90;;
18875;SDS011;9570;50.854;13.778;2023-04-12T05:31:43;3.70;;;2.00;;
18875;SDS011;9570;50.854;13.778;2023-04-12T05:34:08;2.63;;;1.40;;
18875;SDS011;9570;50.854;13.778;2023-04-12T05:36:34;1.93;;;1.47;;
18875;SDS011;9570;50.854;13.778;2023-04-12T05:38:59;5.03;;;2.10;;
18875;SDS011;9570;50.854;13.778;2023-04-12T05:41:25;4.13;;;1.70;;
18875;SDS011;9570;50.854;13.778;2023-04-12T05:43:51;6.40;;;1.70;;
18875;SDS011;9570;50.854;13.778;2023-04-12T05:46:16;3.10;;;2.17;;
18875;SDS011;9570;50.854;13.778;2023-04-12T05:48:42;3.97;;;2.27;;
18875;SDS011;9570;50.854;13.778;2023-04-12T05:51:07;2.30;;;1.73;;
18875;SDS011;9570;50.854;13.778;2023-04-12T05:53:32;3.53;;;2.00;;
18875;SDS011;9570;50.854;13.778;2023-04-12T05:55:58;3.83;;;2.10;;
18875;SDS011;9570;50.854;13.778;2023-04-12T05:58:23;5.97;;;2.67;;
18875;SDS011;9570;50.854;13.778;2023-04-12T06:00:49;4.57;;;2.00;;
18875;SDS011;9570;50.854;13.778;2023-04-12T06:03:15;3.28;;;1.88;;
18875;SDS011;9570;50.854;13.778;2023-04-12T06:05:41;4.37;;;2.03;;
18875;SDS011;9570;50.854;13.778;2023-04-12T06:08:06;3.03;;;1.93;;
18875;SDS011;9570;50.854;13.778;2023-04-12T06:10:32;7.13;;;1.97;;
18875;SDS011;9570;50.854;13.778;2023-04-12T06:12:58;5.97;;;2.23;;
18875;SDS011;9570;50.854;13.778;2023-04-12T06:15:23;3.20;;;1.83;;
18875;SDS011;9570;50.854;13.778;2023-04-12T06:17:49;2.40;;;1.63;;
18875;SDS011;9570;50.854;13.778;2023-04-12T06:20:15;4.27;;;1.37;;
18875;SDS011;9570;50.854;13.778;2023-04-12T06:22:41;5.30;;;1.90;;
18875;SDS011;9570;50.854;13.778;2023-04-12T06:25:06;4.50;;;1.93;;
18875;SDS011;9570;50.854;13.778;2023-04-12T06:27:32;5.93;;;1.97;;
18875;SDS011;9570;50.854;13.778;2023-04-12T06:29:57;3.47;;;2.00;;
18875;SDS011;9570;50.854;13.778;2023-04-12T06:32:23;3.80;;;2.37;;
18875;SDS011;9570;50.854;13.778;2023-04-12T06:34:48;4.33;;;2.20;;
18875;SDS011;9570;50.854;13.778;2023-04-12T06:37:14;3.93;;;2.00;;
18875;SDS011;9570;50.854;13.778;2023-04-12T06:39:39;1.97;;;1.43;;
18875;SDS011;9570;50.854;13.778;2023-04-12T06:42:05;3.90;;;1.40;;
18875;SDS011;9570;50.854;13.778;2023-04-12T06:44:30;5.30;;;1.50;;
18875;SDS011;9570;50.854;13.778;2023-04-12T06:46:57;3.80;;;1.30;;
18875;SDS011;9570;50.854;13.778;2023-04-12T06:49:23;1.67;;;1.30;;
18875;SDS011;9570;50.854;13.778;2023-04-12T06:51:49;3.73;;;1.33;;
18875;SDS011;9570;50.854;13.778;2023-04-12T06:54:14;2.23;;;1.30;;
18875;SDS011;9570;50.854;13.778;2023-04-12T06:56:40;3.50;;;1.30;;
18875;SDS011;9570;50.854;13.778;2023-04-12T06:59:05;1.53;;;1.20;;
18875;SDS011;9570;50.854;13.778;2023-04-12T07:01:31;2.33;;;1.40;;
18875;SDS011;9570;50.854;13.778;2023-04-12T07:03:56;5.30;;;1.60;;
18875;SDS011;9570;50.854;13.778;2023-04-12T07:06:22;3.73;;;1.60;;
18875;SDS011;9570;50.854;13.778;2023-04-12T07:08:47;2.87;;;1.33;;
18875;SDS011;9570;50.854;13.778;2023-04-12T07:11:13;2.17;;;1.43;;
18875;SDS011;9570;50.854;13.778;2023-04-12T07:13:39;3.03;;;1.53;;
18875;SDS011;9570;50.854;13.778;2023-04-12T07:16:05;3.07;;;1.37;;
18875;SDS011;9570;50.854;13.778;2023-04-12T07:18:30;2.50;;;1.20;;
18875;SDS011;9570;50.854;13.778;2023-04-12T07:20:56;2.97;;;1.40;;
18875;SDS011;9570;50.854;13.778;2023-04-12T07:23:22;3.03;;;1.40;;
18875;SDS011;9570;50.854;13.778;2023-04-12T07:25:48;2.93;;;1.30;;
18875;SDS011;9570;50.854;13.778;2023-04-12T07:28:13;3.47;;;1.43;;
18875;SDS011;9570;50.854;13.778;2023-04-12T07:30:39;2.00;;;1.20;;
18875;SDS011;9570;50.854;13.778;2023-04-12T07:33:04;0.97;;;0.93;;
18875;SDS011;9570;50.854;13.778;2023-04-12T07:35:31;2.63;;;1.43;;
18875;SDS011;9570;50.854;13.778;2023-04-12T07:37:57;1.63;;;1.30;;
18875;SDS011;9570;50.854;13.778;2023-04-12T07:40:23;4.53;;;1.60;;
18875;SDS011;9570;50.854;13.778;2023-04-12T07:42:49;4.37;;;1.40;;
18875;SDS011;9570;50.854;13.778;2023-04-12T07:45:14;2.73;;;1.37;;
18875;SDS011;9570;50.854;13.778;2023-04-12T07:47:40;2.70;;;1.23;;
18875;SDS011;9570;50.854;13.778;2023-04-12T07:50:06;2.43;;;1.50;;
18875;SDS011;9570;50.854;13.778;2023-04-12T07:52:32;3.27;;;1.77;;
18875;SDS011;9570;50.854;13.778;2023-04-12T07:54:57;5.10;;;1.50;;
18875;SDS011;9570;50.854;13.778;2023-04-12T07:57:23;3.60;;;1.43;;
18875;SDS011;9570;50.854;13.778;2023-04-12T07:59:48;4.73;;;1.60;;
18875;SDS011;9570;50.854;13.778;2023-04-12T08:02:14;2.93;;;1.70;;
18875;SDS011;9570;50.854;13.778;2023-04-12T08:04:48;2.00;;;1.50;;
18875;SDS011;9570;50.854;13.778;2023-04-12T08:07:19;4.90;;;1.73;;
18875;SDS011;9570;50.854;13.778;2023-04-12T08:09:46;4.03;;;1.53;;
18875;SDS011;9570;50.854;13.778;2023-04-12T08:12:12;2.73;;;1.60;;
18875;SDS011;9570;50.854;13.778;2023-04-12T08:14:38;5.20;;;1.80;;
18875;SDS011;9570;50.854;13.778;2023-04-12T08:17:03;3.53;;;1.60;;
18875;SDS011;9570;50.854;13.778;2023-04-12T08:19:29;3.97;;;1.23;;
18875;SDS011;9570;50.854;13.778;2023-04-12T08:21:54;3.63;;;1.40;;
18875;SDS011;9570;50.854;13.778;2023-04-12T08:24:20;2.90;;;1.70;;
18875;SDS011;9570;50.854;13.778;2023-04-12T08:26:45;3.77;;;1.30;;
18875;SDS011;9570;50.854;13.778;2023-04-12T08:29:11;2.60;;;1.50;;
18875;SDS011;9570;50.854;13.778;2023-04-12T08:31:37;3.77;;;1.60;;
18875;SDS011;9570;50.854;13.778;2023-04-12T08:34:03;3.27;;;1.57;;
18875;SDS011;9570;50.854;13.778;2023-04-12T08:36:28;2.40;;;1.50;;
18875;SDS011;9570;50.854;13.778;2023-04-12T08:38:58;3.17;;;1.60;;
18875;SDS011;9570;50.854;13.778;2023-04-12T08:41:23;4.00;;;1.43;;
18875;SDS011;9570;50.854;13.778;2023-04-12T08:43:49;4.33;;;1.73;;
18875;SDS011;9570;50.854;13.778;2023-04-12T08:46:16;2.90;;;1.53;;
18875;SDS011;9570;50.854;13.778;2023-04-12T08:48:43;3.37;;;1.53;;
18875;SDS011;9570;50.854;13.778;2023-04-12T08:51:12;2.37;;;1.67;;
18875;SDS011;9570;50.854;13.778;2023-04-12T08:53:39;4.53;;;1.50;;
18875;SDS011;9570;50.854;13.778;2023-04-12T08:56:05;4.27;;;1.37;;
18875;SDS011;9570;50.854;13.778;2023-04-12T08:58:35;3.30;;;1.40;;
18875;SDS011;9570;50.854;13.778;2023-04-12T09:01:03;3.47;;;1.50;;
18875;SDS011;9570;50.854;13.778;2023-04-12T09:03:32;6.10;;;2.40;;
18875;SDS011;9570;50.854;13.778;2023-04-12T09:06:00;3.60;;;2.17;;
18875;SDS011;9570;50.854;13.778;2023-04-12T09:08:27;6.43;;;3.37;;
18875;SDS011;9570;50.854;13.778;2023-04-12T09:10:52;2.37;;;1.87;;
18875;SDS011;9570;50.854;13.778;2023-04-12T09:13:29;8.20;;;1.60;;
18875;SDS011;9570;50.854;13.778;2023-04-12T09:15:59;3.13;;;1.50;;
18875;SDS011;9570;50.854;13.778;2023-04-12T09:18:25;1.50;;;1.40;;
18875;SDS011;9570;50.854;13.778;2023-04-12T09:21:06;2.47;;;1.40;;
18875;SDS011;9570;50.854;13.778;2023-04-12T09:23:32;3.33;;;1.70;;
18875;SDS011;9570;50.854;13.778;2023-04-12T09:26:00;2.93;;;1.50;;
18875;SDS011;9570;50.854;13.778;2023-04-12T09:28:26;4.20;;;1.50;;
18875;SDS011;9570;50.854;13.778;2023-04-12T09:30:53;3.77;;;1.80;;
18875;SDS011;9570;50.854;13.778;2023-04-12T09:33:20;3.60;;;1.90;;
18875;SDS011;9570;50.854;13.778;2023-04-12T09:35:47;5.37;;;1.83;;
18875;SDS011;9570;50.854;13.778;2023-04-12T09:38:13;3.53;;;1.60;;
18875;SDS011;9570;50.854;13.778;2023-04-12T09:40:39;3.03;;;1.70;;
18875;SDS011;9570;50.854;13.778;2023-04-12T09:43:05;4.03;;;1.83;;
18875;SDS011;9570;50.854;13.778;2023-04-12T09:45:35;5.07;;;2.20;;
18875;SDS011;9570;50.854;13.778;2023-04-12T09:48:03;5.43;;;2.20;;
18875;SDS011;9570;50.854;13.778;2023-04-12T09:50:29;6.40;;;2.50;;
18875;SDS011;9570;50.854;13.778;2023-04-12T09:52:57;4.67;;;2.53;;
18875;SDS011;9570;50.854;13.778;2023-04-12T09:55:25;4.20;;;2.90;;
18875;SDS011;9570;50.854;13.778;2023-04-12T09:57:52;4.33;;;2.30;;
18875;SDS011;9570;50.854;13.778;2023-04-12T10:00:18;7.57;;;3.07;;
18875;SDS011;9570;50.854;13.778;2023-04-12T10:02:51;7.87;;;3.27;;
18875;SDS011;9570;50.854;13.778;2023-04-12T10:05:19;9.43;;;3.27;;
18875;SDS011;9570;50.854;13.778;2023-04-12T10:07:46;7.40;;;2.93;;
18875;SDS011;9570;50.854;13.778;2023-04-12T10:10:13;6.80;;;3.37;;
18875;SDS011;9570;50.854;13.778;2023-04-12T10:12:40;5.17;;;2.80;;
18875;SDS011;9570;50.854;13.778;2023-04-12T10:15:08;6.67;;;3.17;;
18875;SDS011;9570;50.854;13.778;2023-04-12T10:17:41;5.87;;;3.47;;
18875;SDS011;9570;50.854;13.778;2023-04-12T10:20:11;6.23;;;3.37;;
18875;SDS011;9570;50.854;13.778;2023-04-12T10:22:41;6.50;;;3.20;;
18875;SDS011;9570;50.854;13.778;2023-04-12T10:25:12;5.50;;;4.00;;
18875;SDS011;9570;50.854;13.778;2023-04-12T10:27:40;5.77;;;3.63;;
18875;SDS011;9570;50.854;13.778;2023-04-12T10:35:26;6.23;;;3.63;;
18875;SDS011;9570;50.854;13.778;2023-04-12T10:40:24;8.13;;;4.13;;
18875;SDS011;9570;50.854;13.778;2023-04-12T10:43:33;8.20;;;3.90;;
18875;SDS011;9570;50.854;13.778;2023-04-12T10:45:49;7.13;;;3.30;;
18875;SDS011;9570;50.854;13.778;2023-04-12T10:48:30;8.73;;;3.50;;
18875;SDS011;9570;50.854;13.778;2023-04-12T10:51:19;4.80;;;3.00;;
18875;SDS011;9570;50.854;13.778;2023-04-12T10:56:36;4.77;;;3.00;;
18875;SDS011;9570;50.854;13.778;2023-04-12T10:59:03;6.83;;;3.50;;
18875;SDS011;9570;50.854;13.778;2023-04-12T11:01:32;6.23;;;3.37;;
18875;SDS011;9570;50.854;13.778;2023-04-12T11:04:15;6.73;;;3.47;;
18875;SDS011;9570;50.854;13.778;2023-04-12T11:06:45;8.20;;;3.60;;
18875;SDS011;9570;50.854;13.778;2023-04-12T11:12:09;4.73;;;2.90;;
18875;SDS011;9570;50.854;13.778;2023-04-12T11:19:47;4.43;;;2.67;;
18875;SDS011;9570;50.854;13.778;2023-04-12T11:22:21;6.30;;;2.23;;
18875;SDS011;9570;50.854;13.778;2023-04-12T11:24:52;4.10;;;3.00;;
18875;SDS011;9570;50.854;13.778;2023-04-12T11:27:19;3.63;;;2.70;;
18875;SDS011;9570;50.854;13.778;2023-04-12T11:29:47;6.53;;;3.27;;
18875;SDS011;9570;50.854;13.778;2023-04-12T11:32:14;9.37;;;3.20;;
18875;SDS011;9570;50.854;13.778;2023-04-12T11:34:43;6.43;;;3.90;;
18875;SDS011;9570;50.854;13.778;2023-04-12T11:37:11;7.07;;;3.33;;
18875;SDS011;9570;50.854;13.778;2023-04-12T11:39:37;6.47;;;3.37;;
18875;SDS011;9570;50.854;13.778;2023-04-12T11:42:04;3.93;;;2.83;;
18875;SDS011;9570;50.854;13.778;2023-04-12T11:44:32;6.83;;;3.40;;
18875;SDS011;9570;50.854;13.778;2023-04-12T11:46:58;6.33;;;4.00;;
18875;SDS011;9570;50.854;13.778;2023-04-12T11:49:25;6.13;;;3.47;;
18875;SDS011;9570;50.854;13.778;2023-04-12T11:51:59;7.27;;;3.93;;
18875;SDS011;9570;50.854;13.778;2023-04-12T11:54:29;5.30;;;3.33;;
18875;SDS011;9570;50.854;13.778;2023-04-12T11:57:06;4.70;;;3.10;;
18875;SDS011;9570;50.854;13.778;2023-04-12T11:59:34;6.43;;;3.03;;
18875;SDS011;9570;50.854;13.778;2023-04-12T12:02:00;7.20;;;3.33;;
18875;SDS011;9570;50.854;13.778;2023-04-12T12:04:29;5.77;;;2.83;;
18875;SDS011;9570;50.854;13.778;2023-04-12T12:06:56;6.50;;;3.27;;
18875;SDS011;9570;50.854;13.778;2023-04-12T12:09:22;5.20;;;2.73;;
18875;SDS011;9570;50.854;13.778;2023-04-12T12:11:49;7.37;;;3.33;;
18875;SDS011;9570;50.854;13.778;2023-04-12T12:14:18;9.73;;;2.70;;
18875;SDS011;9570;50.854;13.778;2023-04-12T12:16:51;3.47;;;2.00;;
18875;SDS011;9570;50.854;13.778;2023-04-12T12:19:32;5.83;;;2.40;;
18875;SDS011;9570;50.854;13.778;2023-04-12T12:22:17;3.20;;;2.33;;
18875;SDS011;9570;50.854;13.778;2023-04-12T12:25:05;5.50;;;2.27;;
18875;SDS011;9570;50.854;13.778;2023-04-12T12:27:34;9.30;;;2.40;;
18875;SDS011;9570;50.854;13.778;2023-04-12T12:30:01;3.60;;;1.90;;
18875;SDS011;9570;50.854;13.778;2023-04-12T12:32:35;3.47;;;1.80;;
18875;SDS011;9570;50.854;13.778;2023-04-12T12:35:06;4.37;;;2.00;;
18875;SDS011;9570;50.854;13.778;2023-04-12T12:37:33;5.80;;;2.00;;
18875;SDS011;9570;50.854;13.778;2023-04-12T12:40:00;5.17;;;1.80;;
18875;SDS011;9570;50.854;13.778;2023-04-12T12:42:42;6.90;;;2.67;;
18875;SDS011;9570;50.854;13.778;2023-04-12T12:45:12;7.97;;;2.20;;
18875;SDS011;9570;50.854;13.778;2023-04-12T12:47:46;5.90;;;2.10;;
18875;SDS011;9570;50.854;13.778;2023-04-12T12:50:21;6.07;;;2.30;;
18875;SDS011;9570;50.854;13.778;2023-04-12T12:52:48;4.00;;;2.00;;
18875;SDS011;9570;50.854;13.778;2023-04-12T12:55:14;5.20;;;2.13;;
18875;SDS011;9570;50.854;13.778;2023-04-12T12:57:41;5.43;;;2.10;;
18875;SDS011;9570;50.854;13.778;2023-04-12T13:00:07;3.20;;;1.70;;
18875;SDS011;9570;50.854;13.778;2023-04-12T13:02:34;3.57;;;1.53;;
18875;SDS011;9570;50.854;13.778;2023-04-12T13:05:01;4.20;;;1.53;;
18875;SDS011;9570;50.854;13.778;2023-04-12T13:07:27;3.40;;;1.83;;
18875;SDS011;9570;50.854;13.778;2023-04-12T13:09:52;3.50;;;1.60;;
18875;SDS011;9570;50.854;13.778;2023-04-12T13:12:18;3.77;;;1.73;;
18875;SDS011;9570;50.854;13.778;2023-04-12T13:14:45;3.97;;;1.80;;
18875;SDS011;9570;50.854;13.778;2023-04-12T13:17:11;2.93;;;1.50;;
18875;SDS011;9570;50.854;13.778;2023-04-12T13:19:37;3.67;;;1.60;;
18875;SDS011;9570;50.854;13.778;2023-04-12T13:22:02;2.80;;;1.40;;
18875;SDS011;9570;50.854;13.778;2023-04-12T13:24:28;4.00;;;1.90;;
18875;SDS011;9570;50.854;13.778;2023-04-12T13:26:54;4.83;;;1.53;;
18875;SDS011;9570;50.854;13.778;2023-04-12T13:29:19;4.40;;;1.77;;
18875;SDS011;9570;50.854;13.778;2023-04-12T13:31:44;4.67;;;1.60;;
18875;SDS011;9570;50.854;13.778;2023-04-12T13:34:10;5.27;;;1.70;;
18875;SDS011;9570;50.854;13.778;2023-04-12T13:36:35;3.23;;;1.60;;
18875;SDS011;9570;50.854;13.778;2023-04-12T13:39:01;2.93;;;1.30;;
18875;SDS011;9570;50.854;13.778;2023-04-12T13:41:27;3.47;;;1.63;;
18875;SDS011;9570;50.854;13.778;2023-04-12T13:43:55;2.97;;;1.53;;
18875;SDS011;9570;50.854;13.778;2023-04-12T13:46:20;5.27;;;1.57;;
18875;SDS011;9570;50.854;13.778;2023-04-12T13:48:46;3.63;;;1.50;;
18875;SDS011;9570;50.854;13.778;2023-04-12T13:51:11;4.60;;;1.70;;
18875;SDS011;9570;50.854;13.778;2023-04-12T13:53:36;3.87;;;1.50;;
18875;SDS011;9570;50.854;13.778;2023-04-12T13:56:02;4.57;;;1.40;;
18875;SDS011;9570;50.854;13.778;2023-04-12T13:58:27;4.07;;;1.53;;
18875;SDS011;9570;50.854;13.778;2023-04-12T14:00:53;4.03;;;1.50;;
18875;SDS011;9570;50.854;13.778;2023-04-12T14:03:20;4.53;;;1.30;;
18875;SDS011;9570;50.854;13.778;2023-04-12T14:05:46;2.60;;;1.30;;
18875;SDS011;9570;50.854;13.778;2023-04-12T14:08:11;1.80;;;1.30;;
18875;SDS011;9570;50.854;13.778;2023-04-12T14:10:37;3.83;;;1.60;;
18875;SDS011;9570;50.854;13.778;2023-04-12T14:13:02;3.10;;;1.70;;
18875;SDS011;9570;50.854;13.778;2023-04-12T14:15:28;3.70;;;1.50;;
18875;SDS011;9570;50.854;13.778;2023-04-12T14:17:53;3.70;;;1.53;;
18875;SDS011;9570;50.854;13.778;2023-04-12T14:20:19;4.60;;;1.47;;
18875;SDS011;9570;50.854;13.778;2023-04-12T14:22:44;6.50;;;1.80;;
18875;SDS011;9570;50.854;13.778;2023-04-12T14:25:10;5.80;;;1.60;;
18875;SDS011;9570;50.854;13.778;2023-04-12T14:27:35;2.77;;;1.60;;
18875;SDS011;9570;50.854;13.778;2023-04-12T14:30:01;4.50;;;1.70;;
18875;SDS011;9570;50.854;13.778;2023-04-12T14:32:27;5.77;;;2.20;;
18875;SDS011;9570;50.854;13.778;2023-04-12T14:34:52;3.47;;;1.90;;
18875;SDS011;9570;50.854;13.778;2023-04-12T14:37:18;3.47;;;1.70;;
18875;SDS011;9570;50.854;13.778;2023-04-12T14:39:43;5.17;;;2.20;;
18875;SDS011;9570;50.854;13.778;2023-04-12T14:42:08;4.53;;;2.20;;
18875;SDS011;9570;50.854;13.778;2023-04-12T14:44:34;4.93;;;2.00;;
18875;SDS011;9570;50.854;13.778;2023-04-12T14:47:00;4.37;;;1.80;;
18875;SDS011;9570;50.854;13.778;2023-04-12T14:49:25;6.53;;;2.03;;
18875;SDS011;9570;50.854;13.778;2023-04-12T14:51:51;5.90;;;2.50;;
18875;SDS011;9570;50.854;13.778;2023-04-12T14:54:16;6.63;;;2.37;;
18875;SDS011;9570;50.854;13.778;2023-04-12T14:56:42;5.57;;;2.20;;
18875;SDS011;9570;50.854;13.778;2023-04-12T14:59:07;5.73;;;2.60;;
18875;SDS011;9570;50.854;13.778;2023-04-12T15:01:33;5.00;;;2.57;;
18875;SDS011;9570;50.854;13.778;2023-04-12T15:04:01;4.50;;;2.47;;
18875;SDS011;9570;50.854;13.778;2023-04-12T15:06:27;5.07;;;2.47;;
18875;SDS011;9570;50.854;13.778;2023-04-12T15:08:54;4.77;;;2.67;;
18875;SDS011;9570;50.854;13.778;2023-04-12T15:11:21;8.67;;;3.10;;
18875;SDS011;9570;50.854;13.778;2023-04-12T15:13:50;4.93;;;2.93;;